createdAt,value
2019-02-20T00:01:38.558Z,100965.80
2019-02-20T00:04:08.070Z,100970.98
2019-02-20T00:06:37.580Z,100960.20
2019-02-20T00:09:07.751Z,100973.58
2019-02-20T00:11:37.263Z,100973.16
2019-02-20T00:14:06.953Z,100973.16
2019-02-20T00:16:36.487Z,100977.11
2019-02-20T00:19:05.998Z,100977.19
2019-02-20T00:21:35.505Z,100974.23
2019-02-20T00:24:05.031Z,100966.97
2019-02-20T00:26:34.537Z,100977.45
2019-02-20T00:29:04.076Z,100980.56
2019-02-20T00:31:33.670Z,100979.27
2019-02-20T00:34:03.186Z,100983.63
2019-02-20T00:36:32.700Z,100978.91
2019-02-20T00:39:02.340Z,100978.09
2019-02-20T00:41:31.849Z,100977.73
2019-02-20T00:44:03.002Z,100976.07
2019-02-20T00:46:34.194Z,100978.30
2019-02-20T00:49:05.338Z,100977.84
2019-02-20T00:51:36.835Z,100984.33
2019-02-20T00:54:09.263Z,100983.86
2019-02-20T00:56:39.012Z,100983.75
2019-02-20T00:59:08.551Z,100992.76
2019-02-20T01:01:38.348Z,100984.51
2019-02-20T01:04:07.864Z,100996.54
2019-02-20T01:06:37.448Z,100992.18
2019-02-20T01:09:07.785Z,100994.83
2019-02-20T01:11:37.299Z,100995.60
2019-02-20T01:14:06.836Z,101002.97
2019-02-20T01:16:36.365Z,100997.78
2019-02-20T01:19:05.873Z,101000.38
2019-02-20T01:21:35.383Z,101005.98
2019-02-20T01:24:04.908Z,100993.95
2019-02-20T01:26:34.429Z,101003.02
2019-02-20T01:29:03.946Z,101000.48
2019-02-20T01:31:33.631Z,100994.88
2019-02-20T01:34:03.302Z,101000.95
2019-02-20T01:36:32.809Z,100995.34
2019-02-20T01:39:02.455Z,100992.34
2019-02-20T01:41:31.976Z,100991.06
2019-02-20T01:44:01.493Z,100987.23
2019-02-20T01:46:31.037Z,100985.05
2019-02-20T01:49:00.584Z,100978.56
2019-02-20T01:51:30.172Z,100976.36
2019-02-20T01:54:00.101Z,100979.32
2019-02-20T01:56:29.609Z,100985.44
2019-02-20T01:58:59.119Z,100991.06
2019-02-20T02:01:28.678Z,100984.63
2019-02-20T02:03:58.200Z,100988.94
2019-02-20T02:06:27.711Z,100987.23
2019-02-20T02:08:57.312Z,100983.80
2019-02-20T02:11:28.355Z,100985.05
2019-02-20T02:13:57.896Z,100980.73
2019-02-20T02:16:27.747Z,100980.80
2019-02-20T02:18:57.264Z,100979.08
2019-02-20T02:21:26.778Z,100984.33
2019-02-20T02:23:56.318Z,100986.97
2019-02-20T02:26:25.810Z,100983.08
2019-02-20T02:28:55.515Z,100976.59
2019-02-20T02:31:25.230Z,100976.07
2019-02-20T02:33:54.739Z,100985.92
2019-02-20T02:36:24.247Z,100983.70
2019-02-20T02:38:53.860Z,100989.64
2019-02-20T02:41:25.668Z,100990.73
2019-02-20T02:43:54.788Z,100985.38
2019-02-20T02:46:24.327Z,100995.67
2019-02-20T02:48:53.855Z,100994.33
2019-02-20T02:51:23.372Z,100999.34
2019-02-20T02:53:53.055Z,100990.11
2019-02-20T02:56:22.555Z,100998.64
2019-02-20T02:58:52.071Z,100998.42
2019-02-20T03:01:21.627Z,100995.16
2019-02-20T03:03:51.127Z,100999.19
2019-02-20T03:06:20.632Z,101000.17
2019-02-20T03:08:50.274Z,100987.70
2019-02-20T03:11:19.787Z,100993.42
2019-02-20T03:13:49.303Z,100997.48
2019-02-20T03:16:18.854Z,100997.41
2019-02-20T03:18:48.361Z,100993.92
2019-02-20T03:21:17.878Z,100997.75
2019-02-20T03:23:47.404Z,100998.11
2019-02-20T03:26:16.916Z,100997.93
2019-02-20T03:28:46.418Z,101004.81
2019-02-20T03:31:16.159Z,101006.46
2019-02-20T03:33:45.699Z,101006.78
2019-02-20T03:36:15.190Z,101010.91
2019-02-20T03:38:44.716Z,101010.72
2019-02-20T03:41:14.228Z,101017.52
2019-02-20T03:43:43.759Z,101020.55
2019-02-20T03:46:13.271Z,101024.02
2019-02-20T03:48:42.803Z,101029.67
2019-02-20T03:51:12.303Z,101026.67
2019-02-20T03:53:51.224Z,101024.91
2019-02-20T03:56:13.403Z,101024.84
2019-02-20T03:58:43.004Z,101027.61
2019-02-20T04:01:12.865Z,101026.50
2019-02-20T04:03:42.345Z,101031.89
2019-02-20T04:06:11.870Z,101026.54
2019-02-20T04:08:41.404Z,101031.22
2019-02-20T04:11:10.979Z,101025.48
2019-02-20T04:13:40.510Z,101032.69
2019-02-20T04:16:10.214Z,101029.86
2019-02-20T04:18:39.710Z,101030.11
2019-02-20T04:21:09.232Z,101037.70
2019-02-20T04:23:38.763Z,101028.45
2019-02-20T04:26:09.862Z,101036.36
2019-02-20T04:28:39.620Z,101034.36
2019-02-20T04:31:09.155Z,101035.77
2019-02-20T04:33:38.675Z,101035.02
2019-02-20T04:36:08.204Z,101035.65
2019-02-20T04:38:37.726Z,101029.75
2019-02-20T04:41:07.227Z,101037.69
2019-02-20T04:43:36.737Z,101039.95
2019-02-20T04:46:06.293Z,101040.89
2019-02-20T04:48:35.797Z,101039.70
2019-02-20T04:51:05.411Z,101047.59
2019-02-20T04:53:34.935Z,101044.17
2019-02-20T04:56:04.473Z,101048.13
2019-02-20T04:58:33.992Z,101045.29
2019-02-20T05:01:03.544Z,101048.05
2019-02-20T05:03:33.042Z,101042.08
2019-02-20T05:06:02.588Z,101037.77
2019-02-20T05:08:32.099Z,101039.90
2019-02-20T05:11:01.611Z,101046.38
2019-02-20T05:13:31.193Z,101053.28
2019-02-20T05:16:01.173Z,101054.12
2019-02-20T05:18:30.714Z,101051.22
2019-02-20T05:21:00.211Z,101045.62
2019-02-20T05:23:30.258Z,101052.64
2019-02-20T05:25:59.763Z,101042.31
2019-02-20T05:28:29.279Z,101037.53
2019-02-20T05:30:58.821Z,101047.09
2019-02-20T05:33:28.329Z,101060.53
2019-02-20T05:35:57.848Z,101057.11
2019-02-20T05:38:27.399Z,101054.98
2019-02-20T05:40:56.913Z,101048.95
2019-02-20T05:43:26.430Z,101049.42
2019-02-20T05:45:56.055Z,101059.45
2019-02-20T05:48:25.767Z,101068.95
2019-02-20T05:50:55.561Z,101068.53
2019-02-20T05:53:25.082Z,101064.64
2019-02-20T05:55:54.637Z,101068.95
2019-02-20T05:58:24.150Z,101087.58
2019-02-20T06:00:53.712Z,101091.48
2019-02-20T06:03:23.219Z,101079.81
2019-02-20T06:05:52.770Z,101079.80
2019-02-20T06:08:22.288Z,101084.16
2019-02-20T06:10:51.799Z,101087.19
2019-02-20T06:13:21.298Z,101082.05
2019-02-20T06:15:51.073Z,101082.05
2019-02-20T06:18:20.601Z,101081.16
2019-02-20T06:20:50.114Z,101085.52
2019-02-20T06:23:19.647Z,101088.17
2019-02-20T06:25:49.158Z,101089.94
2019-02-20T06:28:18.667Z,101094.72
2019-02-20T06:30:48.208Z,101099.13
2019-02-20T06:33:17.711Z,101106.55
2019-02-20T06:35:47.232Z,101110.56
2019-02-20T06:38:16.780Z,101108.45
2019-02-20T06:40:46.304Z,101115.52
2019-02-20T06:43:15.815Z,101110.53
2019-02-20T06:45:45.530Z,101113.77
2019-02-20T06:48:15.042Z,101111.80
2019-02-20T06:50:44.565Z,101115.84
2019-02-20T06:53:14.366Z,101125.48
2019-02-20T06:55:43.879Z,101129.58
2019-02-20T06:58:13.402Z,101122.42
2019-02-20T07:00:42.947Z,101128.29
2019-02-20T07:03:12.455Z,101131.09
2019-02-20T07:05:43.761Z,101134.32
2019-02-20T07:08:46.860Z,101142.73
2019-02-20T07:11:42.171Z,101134.56
2019-02-20T07:14:33.892Z,101132.50
2019-02-20T07:17:31.494Z,101139.09
2019-02-20T07:20:29.343Z,101140.59
2019-02-20T07:23:44.554Z,101143.72
2019-02-20T07:26:39.361Z,101152.55
2019-02-20T07:29:28.171Z,101160.13
2019-02-20T07:31:58.045Z,101160.13
2019-02-20T07:34:27.568Z,101169.80
2019-02-20T07:36:57.067Z,101171.80
2019-02-20T07:39:27.261Z,101177.10
2019-02-20T07:41:56.777Z,101181.47
2019-02-20T07:44:26.283Z,101175.20
2019-02-20T07:46:55.814Z,101179.36
2019-02-20T07:49:25.326Z,101182.04
2019-02-20T07:51:54.833Z,101188.20
2019-02-20T07:54:24.359Z,101188.50
2019-02-20T07:56:53.881Z,101190.56
2019-02-20T07:59:23.415Z,101182.30
2019-02-20T08:01:52.961Z,101197.41
2019-02-20T08:04:22.490Z,101191.61
2019-02-20T08:06:52.016Z,101196.80
2019-02-20T08:09:21.546Z,101200.75
2019-02-20T08:11:51.064Z,101196.44
2019-02-20T08:14:20.582Z,101203.64
2019-02-20T08:16:52.593Z,101202.02
2019-02-20T08:19:22.053Z,101207.56
2019-02-20T08:21:51.643Z,101211.58
2019-02-20T08:24:21.173Z,101215.70
2019-02-20T08:26:50.688Z,101213.49
2019-02-20T08:29:20.270Z,101213.28
2019-02-20T08:31:49.815Z,101219.09
2019-02-20T08:34:19.343Z,101214.34
2019-02-20T08:36:49.189Z,101228.52
2019-02-20T08:39:18.705Z,101231.20
2019-02-20T08:41:48.240Z,101239.61
2019-02-20T08:44:18.025Z,101238.48
2019-02-20T08:46:47.578Z,101236.59
2019-02-20T08:49:17.103Z,101229.42
2019-02-20T08:51:49.408Z,101242.52
2019-02-20T08:54:18.935Z,101249.48
2019-02-20T08:56:48.756Z,101262.39
2019-02-20T08:59:18.283Z,101259.11
2019-02-20T09:01:47.809Z,101269.22
2019-02-20T09:04:17.321Z,101261.89
2019-02-20T09:06:46.859Z,101272.60
2019-02-20T09:09:16.362Z,101273.27
2019-02-20T09:11:47.542Z,101279.58
2019-02-20T09:14:17.067Z,101278.23
2019-02-20T09:16:46.589Z,101284.72
2019-02-20T09:19:16.122Z,101290.86
2019-02-20T09:21:47.274Z,101281.86
2019-02-20T09:24:16.820Z,101287.97
2019-02-20T09:26:46.340Z,101304.22
2019-02-20T09:29:15.865Z,101294.39
2019-02-20T09:31:45.397Z,101300.28
2019-02-20T09:34:14.908Z,101295.97
2019-02-20T09:36:44.440Z,101312.28
2019-02-20T09:39:35.275Z,101303.04
2019-02-20T09:42:06.688Z,101301.37
2019-02-20T09:44:40.982Z,101303.64
2019-02-20T09:47:10.491Z,101297.77
2019-02-20T09:49:40.029Z,101308.55
2019-02-20T09:52:09.535Z,101301.08
2019-02-20T09:54:39.523Z,101308.32
2019-02-20T09:57:09.051Z,101308.47
2019-02-20T09:59:38.565Z,101311.14
2019-02-20T10:02:08.173Z,101316.10
2019-02-20T10:04:37.965Z,101320.96
2019-02-20T10:07:07.624Z,101325.59
2019-02-20T10:09:37.131Z,101330.62
2019-02-20T10:12:06.644Z,101329.95
2019-02-20T10:14:36.171Z,101325.59
2019-02-20T10:17:05.705Z,101312.51
2019-02-20T10:19:35.224Z,101302.95
2019-02-20T10:22:04.748Z,101296.16
2019-02-20T10:24:34.268Z,101315.34
2019-02-20T10:27:03.792Z,101322.82
2019-02-20T10:29:33.320Z,101331.66
2019-02-20T10:32:02.875Z,101327.01
2019-02-20T10:34:32.387Z,101334.56
2019-02-20T10:37:01.897Z,101340.06
2019-02-20T10:39:31.430Z,101337.34
2019-02-20T10:42:01.013Z,101328.30
2019-02-20T10:44:30.537Z,101327.06
2019-02-20T10:47:00.060Z,101335.11
2019-02-20T10:49:29.716Z,101328.20
2019-02-20T10:51:59.246Z,101326.56
2019-02-20T10:54:28.772Z,101321.42
2019-02-20T10:56:58.308Z,101336.38
2019-02-20T10:59:27.833Z,101330.62
2019-02-20T11:01:57.441Z,101332.72
2019-02-20T11:04:26.966Z,101329.58
2019-02-20T11:06:56.666Z,101334.28
2019-02-20T11:09:26.178Z,101334.70
2019-02-20T11:11:55.691Z,101331.31
2019-02-20T11:14:25.229Z,101327.41
2019-02-20T11:16:54.747Z,101329.73
2019-02-20T11:19:24.276Z,101331.55
2019-02-20T11:21:53.783Z,101327.22
2019-02-20T11:24:23.315Z,101330.76
2019-02-20T11:26:55.174Z,101327.70
2019-02-20T11:29:24.076Z,101323.83
2019-02-20T11:31:53.604Z,101324.75
2019-02-20T11:34:23.119Z,101326.13
2019-02-20T11:36:52.772Z,101329.94
2019-02-20T11:39:22.286Z,101331.16
2019-02-20T11:41:51.804Z,101325.39
2019-02-20T11:44:21.410Z,101327.42
2019-02-20T11:46:50.919Z,101329.03
2019-02-20T11:49:20.452Z,101327.91
2019-02-20T11:51:49.969Z,101335.48
2019-02-20T11:54:19.509Z,101334.36
2019-02-20T11:56:49.028Z,101328.52
2019-02-20T11:59:18.541Z,101326.75
2019-02-20T12:01:48.080Z,101324.97
2019-02-20T12:04:17.584Z,101320.59
2019-02-20T12:06:47.422Z,101322.23
2019-02-20T12:09:17.010Z,101316.38
2019-02-20T12:11:48.324Z,101319.80
2019-02-20T12:14:17.835Z,101312.91
2019-02-20T12:16:47.355Z,101312.58
2019-02-20T12:19:16.878Z,101322.20
2019-02-20T12:21:46.388Z,101322.98
2019-02-20T12:24:15.995Z,101322.95
2019-02-20T12:26:45.513Z,101324.31
2019-02-20T12:29:15.047Z,101326.50
2019-02-20T12:31:52.308Z,101327.31
2019-02-20T12:34:15.793Z,101332.84
2019-02-20T12:36:45.392Z,101330.20
2019-02-20T12:39:14.903Z,101327.95
2019-02-20T12:41:44.435Z,101324.38
2019-02-20T12:44:13.946Z,101327.33
2019-02-20T12:46:43.452Z,101324.27
2019-02-20T12:49:12.986Z,101322.61
2019-02-20T12:51:42.506Z,101320.58
2019-02-20T12:54:12.034Z,101325.20
2019-02-20T12:56:44.005Z,101325.33
2019-02-20T12:59:12.889Z,101319.63
2019-02-20T13:01:42.403Z,101312.08
2019-02-20T13:04:11.988Z,101327.17
2019-02-20T13:06:41.531Z,101323.52
2019-02-20T13:09:12.716Z,101320.73
2019-02-20T13:11:42.323Z,101324.91
2019-02-20T13:14:11.859Z,101327.02
2019-02-20T13:16:41.400Z,101330.73
2019-02-20T13:19:10.949Z,101324.86
2019-02-20T13:21:40.472Z,101334.34
2019-02-20T13:24:10.006Z,101322.55
2019-02-20T13:26:39.524Z,101332.22
2019-02-20T13:29:09.049Z,101331.49
2019-02-20T13:31:38.561Z,101331.59
2019-02-20T13:34:08.251Z,101332.13
2019-02-20T13:36:37.753Z,101338.77
2019-02-20T13:39:07.350Z,101336.97
2019-02-20T13:41:36.888Z,101338.45
2019-02-20T13:44:06.409Z,101332.09
2019-02-20T13:46:36.231Z,101332.36
2019-02-20T13:49:06.003Z,101329.30
2019-02-20T13:51:35.919Z,101335.89
2019-02-20T13:54:05.499Z,101327.23
2019-02-20T13:56:35.077Z,101323.31
2019-02-20T13:59:04.621Z,101327.23
2019-02-20T14:01:34.130Z,101331.94
2019-02-20T14:04:04.331Z,101333.67
2019-02-20T14:06:34.239Z,101327.50
2019-02-20T14:09:04.864Z,101326.16
2019-02-20T14:11:34.383Z,101326.25
2019-02-20T14:14:03.910Z,101334.55
2019-02-20T14:16:33.412Z,101323.77
2019-02-20T14:19:02.947Z,101326.47
2019-02-20T14:21:32.885Z,101329.45
2019-02-20T14:24:02.638Z,101331.09
2019-02-20T14:26:32.172Z,101325.67
2019-02-20T14:29:01.842Z,101332.46
2019-02-20T14:31:31.371Z,101323.08
2019-02-20T14:34:00.908Z,101330.39
2019-02-20T14:36:30.686Z,101326.93
2019-02-20T14:39:00.226Z,101333.39
2019-02-20T14:41:29.733Z,101327.74
2019-02-20T14:43:59.287Z,101328.56
2019-02-20T14:46:28.797Z,101329.76
2019-02-20T14:48:58.312Z,101333.61
2019-02-20T14:51:28.220Z,101336.11
2019-02-20T14:53:57.730Z,101333.39
2019-02-20T14:56:27.272Z,101336.39
2019-02-20T14:58:56.788Z,101335.52
2019-02-20T15:01:26.320Z,101334.17
2019-02-20T15:03:55.822Z,101339.81
2019-02-20T15:06:25.617Z,101340.20
2019-02-20T15:08:55.190Z,101340.59
2019-02-20T15:11:24.708Z,101343.20
2019-02-20T15:13:55.439Z,101341.44
2019-02-20T15:16:25.023Z,101350.11
2019-02-20T15:18:54.724Z,101350.54
2019-02-20T15:21:24.619Z,101347.85
2019-02-20T15:23:54.426Z,101353.92
2019-02-20T15:26:24.244Z,101357.34
2019-02-20T15:28:54.830Z,101367.74
2019-02-20T15:31:33.184Z,101360.75
2019-02-20T15:33:55.636Z,101368.97
2019-02-20T15:36:25.443Z,101375.04
2019-02-20T15:38:54.962Z,101377.19
2019-02-20T15:41:24.481Z,101371.89
2019-02-20T15:43:54.152Z,101370.55
2019-02-20T15:46:23.668Z,101371.42
2019-02-20T15:48:53.202Z,101374.00
2019-02-20T15:51:23.106Z,101371.81
2019-02-20T15:53:52.651Z,101373.88
2019-02-20T15:56:22.177Z,101378.98
2019-02-20T15:58:51.755Z,101381.97
2019-02-20T16:01:21.281Z,101382.77
2019-02-20T16:03:50.799Z,101384.88
2019-02-20T16:06:20.332Z,101382.19
2019-02-20T16:08:49.860Z,101389.97
2019-02-20T16:11:19.403Z,101388.59
2019-02-20T16:13:50.150Z,101394.23
2019-02-20T16:16:19.722Z,101391.53
2019-02-20T16:18:49.249Z,101401.05
2019-02-20T16:21:18.774Z,101394.86
2019-02-20T16:23:48.303Z,101407.88
2019-02-20T16:26:20.771Z,101407.36
2019-02-20T16:28:50.322Z,101405.13
2019-02-20T16:31:19.856Z,101405.52
2019-02-20T16:33:49.424Z,101408.07
2019-02-20T16:36:18.986Z,101408.41
2019-02-20T16:38:48.517Z,101407.90
2019-02-20T16:41:18.062Z,101419.92
2019-02-20T16:43:48.754Z,101415.08
2019-02-20T16:46:18.374Z,101427.61
2019-02-20T16:48:48.167Z,101422.69
2019-02-20T16:51:17.671Z,101424.78
2019-02-20T16:53:47.214Z,101428.64
2019-02-20T16:56:16.804Z,101429.89
2019-02-20T16:58:46.340Z,101427.20
2019-02-20T17:01:15.850Z,101429.34
2019-02-20T17:03:45.467Z,101436.70
2019-02-20T17:06:15.321Z,101441.02
2019-02-20T17:08:44.848Z,101444.01
2019-02-20T17:11:14.382Z,101447.50
2019-02-20T17:13:43.888Z,101445.73
2019-02-20T17:16:13.500Z,101448.80
2019-02-20T17:18:43.004Z,101448.80
2019-02-20T17:21:12.848Z,101457.46
2019-02-20T17:23:42.489Z,101461.28
2019-02-20T17:26:12.023Z,101463.27
2019-02-20T17:28:41.552Z,101465.16
2019-02-20T17:31:11.174Z,101465.80
2019-02-20T17:33:40.785Z,101467.78
2019-02-20T17:36:10.254Z,101472.85
2019-02-20T17:38:39.768Z,101470.20
2019-02-20T17:41:09.519Z,101481.08
2019-02-20T17:43:39.026Z,101474.16
2019-02-20T17:46:08.556Z,101481.97
2019-02-20T17:48:38.271Z,101478.11
2019-02-20T17:51:07.806Z,101481.65
2019-02-20T17:53:37.299Z,101479.53
2019-02-20T17:56:07.001Z,101483.53
2019-02-20T17:58:36.503Z,101484.05
2019-02-20T18:01:10.791Z,101487.07
2019-02-20T18:03:40.395Z,101484.93
2019-02-20T18:06:09.988Z,101485.81
2019-02-20T18:08:39.506Z,101487.59
2019-02-20T18:11:09.069Z,101487.59
2019-02-20T18:13:38.626Z,101484.47
2019-02-20T18:16:08.130Z,101484.78
2019-02-20T18:18:37.642Z,101487.70
2019-02-20T18:21:07.192Z,101491.92
2019-02-20T18:23:36.695Z,101490.94
2019-02-20T18:26:06.241Z,101493.44
2019-02-20T18:28:35.748Z,101498.19
2019-02-20T18:31:05.270Z,101493.80
2019-02-20T18:33:34.805Z,101496.77
2019-02-20T18:36:04.326Z,101501.45
2019-02-20T18:38:33.839Z,101499.27
2019-02-20T18:41:03.359Z,101500.11
2019-02-20T18:43:32.920Z,101504.84
2019-02-20T18:46:02.426Z,101507.45
2019-02-20T18:48:31.988Z,101506.98
2019-02-20T18:51:01.515Z,101499.13
2019-02-20T18:53:31.185Z,101502.51
2019-02-20T18:56:01.034Z,101507.25
2019-02-20T18:58:33.945Z,101506.81
2019-02-20T19:01:01.858Z,101505.88
2019-02-20T19:03:31.377Z,101513.27
2019-02-20T19:06:00.932Z,101514.99
2019-02-20T19:08:46.212Z,101518.90
2019-02-20T19:11:32.735Z,101517.55
2019-02-20T19:14:21.708Z,101519.68
2019-02-20T19:17:44.752Z,101523.59
2019-02-20T19:20:43.098Z,101522.70
2019-02-20T19:23:53.933Z,101520.52
2019-02-20T19:26:36.591Z,101524.31
2019-02-20T19:29:25.450Z,101527.18
2019-02-20T19:32:37.739Z,101525.34
2019-02-20T19:35:34.707Z,101523.45
2019-02-20T19:38:23.839Z,101528.56
2019-02-20T19:41:15.947Z,101528.45
2019-02-20T19:43:52.862Z,101528.87
2019-02-20T19:46:50.654Z,101528.84
2019-02-20T19:49:44.166Z,101522.34
2019-02-20T19:52:32.408Z,101529.73
2019-02-20T19:55:27.504Z,101525.31
2019-02-20T19:58:16.604Z,101530.46
2019-02-20T20:01:22.286Z,101522.55
2019-02-20T20:04:05.278Z,101533.01
2019-02-20T20:06:45.450Z,101531.19
2019-02-20T20:09:39.654Z,101524.63
2019-02-20T20:12:33.815Z,101527.64
2019-02-20T20:15:25.908Z,101535.09
2019-02-20T20:18:08.806Z,101527.70
2019-02-20T20:20:43.930Z,101530.77
2019-02-20T20:23:37.825Z,101533.31
2019-02-20T20:26:32.661Z,101527.17
2019-02-20T20:29:34.362Z,101525.33
2019-02-20T20:32:32.454Z,101526.16
2019-02-20T20:35:21.557Z,101525.63
2019-02-20T20:37:58.569Z,101531.25
2019-02-20T20:40:49.243Z,101536.40
2019-02-20T20:43:35.121Z,101533.38
2019-02-20T20:46:33.146Z,101528.95
2019-02-20T20:49:31.837Z,101528.43
2019-02-20T20:52:17.892Z,101524.94
2019-02-20T20:55:20.610Z,101537.12
2019-02-20T20:58:30.752Z,101539.72
2019-02-20T21:01:22.817Z,101535.88
2019-02-20T21:04:21.428Z,101532.86
2019-02-20T21:06:58.421Z,101531.91
2019-02-20T21:09:50.431Z,101530.50
2019-02-20T21:12:53.677Z,101528.71
2019-02-20T21:15:56.565Z,101532.03
2019-02-20T21:19:00.101Z,101526.77
2019-02-20T21:21:34.367Z,101520.98
2019-02-20T21:24:32.866Z,101527.84
2019-02-20T21:27:15.104Z,101525.66
2019-02-20T21:30:09.480Z,101528.20
2019-02-20T21:32:59.886Z,101530.70
2019-02-20T21:36:01.381Z,101530.52
2019-02-20T21:38:47.524Z,101529.47
2019-02-20T21:41:28.004Z,101530.58
2019-02-20T21:44:13.637Z,101538.55
2019-02-20T21:47:15.036Z,101536.66
2019-02-20T21:49:51.945Z,101537.88
2019-02-20T21:52:47.228Z,101533.87
2019-02-20T21:55:29.493Z,101535.52
2019-02-20T21:58:41.174Z,101531.86
2019-02-20T22:01:48.767Z,101539.04
2019-02-20T22:04:53.252Z,101538.80
2019-02-20T22:08:01.674Z,101539.92
2019-02-20T22:10:44.795Z,101546.63
2019-02-20T22:13:52.579Z,101540.55
2019-02-20T22:16:57.105Z,101542.50
2019-02-20T22:19:53.996Z,101541.75
2019-02-20T22:22:49.116Z,101539.72
2019-02-20T22:25:49.391Z,101540.33
2019-02-20T22:28:42.646Z,101539.59
2019-02-20T22:31:47.263Z,101536.72
2019-02-20T22:34:33.292Z,101542.06
2019-02-20T22:37:34.756Z,101544.41
2019-02-20T22:40:31.543Z,101540.34
2019-02-20T22:43:45.420Z,101545.34
2019-02-20T22:46:22.580Z,101551.77
2019-02-20T22:49:02.254Z,101552.45
2019-02-20T22:51:48.660Z,101552.29
2019-02-20T22:54:50.052Z,101558.17
2019-02-20T22:57:54.529Z,101564.17
2019-02-20T23:00:58.530Z,101562.87
2019-02-20T23:03:56.423Z,101568.07
2019-02-20T23:06:42.424Z,101563.22
2019-02-20T23:09:28.666Z,101556.88
2019-02-20T23:12:20.493Z,101569.22
2019-02-20T23:15:00.544Z,101564.81
2019-02-20T23:17:30.173Z,101564.82
2019-02-20T23:19:59.666Z,101568.28
2019-02-20T23:22:30.822Z,101567.34
2019-02-20T23:25:00.350Z,101561.92
2019-02-20T23:27:29.870Z,101562.56
2019-02-20T23:29:59.370Z,101567.53
2019-02-20T23:32:30.658Z,101566.83
2019-02-20T23:35:00.324Z,101573.95
2019-02-20T23:37:29.799Z,101570.66
2019-02-20T23:39:59.318Z,101565.66
2019-02-20T23:42:30.095Z,101568.41
2019-02-20T23:44:59.601Z,101569.88
2019-02-20T23:47:29.178Z,101570.42
2019-02-20T23:49:58.654Z,101573.08
2019-02-20T23:52:28.172Z,101572.61
2019-02-20T23:54:57.675Z,101572.20
2019-02-20T23:57:27.185Z,101570.36
2019-02-20T23:59:56.714Z,101568.52
